sensor_id;sensor_type;location;lat;lon;timestamp;temperature;humidity
15364;DHT22;7781;49.690;6.472;2023-02-13T00:00:20;-0.80;99.90
15364;DHT22;7781;49.690;6.472;2023-02-13T00:02:51;-0.80;99.90
15364;DHT22;7781;49.690;6.472;2023-02-13T00:05:19;-0.90;99.90
15364;DHT22;7781;49.690;6.472;2023-02-13T00:10:57;-1.00;99.90
15364;DHT22;7781;49.690;6.472;2023-02-13T00:19:42;-1.00;99.90
15364;DHT22;7781;49.690;6.472;2023-02-13T00:22:10;-1.00;99.90
15364;DHT22;7781;49.690;6.472;2023-02-13T00:24:39;-1.00;99.90
15364;DHT22;7781;49.690;6.472;2023-02-13T00:27:12;-1.00;99.90
15364;DHT22;7781;49.690;6.472;2023-02-13T00:29:41;-1.00;99.90
15364;DHT22;7781;49.690;6.472;2023-02-13T00:32:10;-1.00;99.90
15364;DHT22;7781;49.690;6.472;2023-02-13T00:34:42;-1.00;99.90
15364;DHT22;7781;49.690;6.472;2023-02-13T00:37:12;-1.00;99.90
15364;DHT22;7781;49.690;6.472;2023-02-13T00:39:40;-1.10;99.90
15364;DHT22;7781;49.690;6.472;2023-02-13T00:42:11;-1.10;99.90
15364;DHT22;7781;49.690;6.472;2023-02-13T00:44:39;-1.10;99.90
15364;DHT22;7781;49.690;6.472;2023-02-13T00:47:08;-1.10;99.90
15364;DHT22;7781;49.690;6.472;2023-02-13T00:49:42;-1.10;99.90
15364;DHT22;7781;49.690;6.472;2023-02-13T00:52:10;-1.10;99.90
15364;DHT22;7781;49.690;6.472;2023-02-13T00:54:39;-1.10;99.90
15364;DHT22;7781;49.690;6.472;2023-02-13T00:57:08;-1.20;99.90
15364;DHT22;7781;49.690;6.472;2023-02-13T00:59:36;-1.20;99.90
15364;DHT22;7781;49.690;6.472;2023-02-13T01:02:06;-1.20;99.90
15364;DHT22;7781;49.690;6.472;2023-02-13T01:04:35;-1.20;99.90
15364;DHT22;7781;49.690;6.472;2023-02-13T01:07:07;-1.20;99.90
15364;DHT22;7781;49.690;6.472;2023-02-13T01:09:35;-1.20;99.90
15364;DHT22;7781;49.690;6.472;2023-02-13T01:12:03;-1.20;99.90
15364;DHT22;7781;49.690;6.472;2023-02-13T01:14:32;-1.20;99.90
15364;DHT22;7781;49.690;6.472;2023-02-13T01:17:01;-1.30;99.90
15364;DHT22;7781;49.690;6.472;2023-02-13T01:19:30;-1.30;99.90
15364;DHT22;7781;49.690;6.472;2023-02-13T01:25:21;-1.30;99.90
15364;DHT22;7781;49.690;6.472;2023-02-13T01:27:50;-1.40;99.90
15364;DHT22;7781;49.690;6.472;2023-02-13T01:30:20;-1.40;99.90
15364;DHT22;7781;49.690;6.472;2023-02-13T01:32:48;-1.40;99.90
15364;DHT22;7781;49.690;6.472;2023-02-13T01:35:17;-1.40;99.90
15364;DHT22;7781;49.690;6.472;2023-02-13T01:37:47;-1.30;99.90
15364;DHT22;7781;49.690;6.472;2023-02-13T01:40:16;-1.40;99.90
15364;DHT22;7781;49.690;6.472;2023-02-13T01:46:27;-1.30;99.90
15364;DHT22;7781;49.690;6.472;2023-02-13T01:48:59;-1.20;99.90
15364;DHT22;7781;49.690;6.472;2023-02-13T01:51:32;-1.20;99.90
15364;DHT22;7781;49.690;6.472;2023-02-13T01:54:05;-1.10;99.90
15364;DHT22;7781;49.690;6.472;2023-02-13T01:56:38;-1.00;99.90
15364;DHT22;7781;49.690;6.472;2023-02-13T01:59:11;-1.00;99.90
15364;DHT22;7781;49.690;6.472;2023-02-13T02:01:44;-0.90;99.90
15364;DHT22;7781;49.690;6.472;2023-02-13T02:04:15;-0.80;99.90
15364;DHT22;7781;49.690;6.472;2023-02-13T02:06:51;-0.80;99.90
15364;DHT22;7781;49.690;6.472;2023-02-13T02:09:28;-0.80;99.90
15364;DHT22;7781;49.690;6.472;2023-02-13T02:12:01;-0.80;99.90
15364;DHT22;7781;49.690;6.472;2023-02-13T02:14:35;-0.80;99.90
15364;DHT22;7781;49.690;6.472;2023-02-13T02:17:08;-0.80;99.90
15364;DHT22;7781;49.690;6.472;2023-02-13T02:19:41;-0.80;99.90
15364;DHT22;7781;49.690;6.472;2023-02-13T02:22:51;-0.80;99.90
15364;DHT22;7781;49.690;6.472;2023-02-13T02:25:46;-0.80;99.90
15364;DHT22;7781;49.690;6.472;2023-02-13T02:28:31;-0.90;99.90
15364;DHT22;7781;49.690;6.472;2023-02-13T02:34:38;-0.90;99.90
15364;DHT22;7781;49.690;6.472;2023-02-13T02:37:20;-1.00;99.90
15364;DHT22;7781;49.690;6.472;2023-02-13T02:40:03;-1.00;99.90
15364;DHT22;7781;49.690;6.472;2023-02-13T02:42:46;-1.00;99.90
15364;DHT22;7781;49.690;6.472;2023-02-13T02:45:24;-1.00;99.90
15364;DHT22;7781;49.690;6.472;2023-02-13T02:47:59;-1.00;99.90
15364;DHT22;7781;49.690;6.472;2023-02-13T02:51:01;-1.00;99.90
15364;DHT22;7781;49.690;6.472;2023-02-13T02:53:38;-1.00;99.90
15364;DHT22;7781;49.690;6.472;2023-02-13T02:56:13;-1.10;99.90
15364;DHT22;7781;49.690;6.472;2023-02-13T02:58:47;-1.10;99.90
15364;DHT22;7781;49.690;6.472;2023-02-13T03:01:36;-1.10;99.90
15364;DHT22;7781;49.690;6.472;2023-02-13T03:04:30;-1.10;99.90
15364;DHT22;7781;49.690;6.472;2023-02-13T03:07:19;-1.00;99.90
15364;DHT22;7781;49.690;6.472;2023-02-13T03:09:51;-1.00;99.90
15364;DHT22;7781;49.690;6.472;2023-02-13T03:12:40;-1.00;99.90
15364;DHT22;7781;49.690;6.472;2023-02-13T03:15:29;-1.00;99.90
15364;DHT22;7781;49.690;6.472;2023-02-13T03:17:58;-1.00;99.90
15364;DHT22;7781;49.690;6.472;2023-02-13T03:20:46;-0.90;99.90
15364;DHT22;7781;49.690;6.472;2023-02-13T03:23:44;-0.80;99.90
15364;DHT22;7781;49.690;6.472;2023-02-13T03:26:33;-0.80;99.90
15364;DHT22;7781;49.690;6.472;2023-02-13T03:29:19;-0.80;99.90
15364;DHT22;7781;49.690;6.472;2023-02-13T03:32:15;-0.70;99.90
15364;DHT22;7781;49.690;6.472;2023-02-13T03:34:54;-0.70;99.90
15364;DHT22;7781;49.690;6.472;2023-02-13T03:37:48;-0.60;99.90
15364;DHT22;7781;49.690;6.472;2023-02-13T03:40:32;-0.60;99.90
15364;DHT22;7781;49.690;6.472;2023-02-13T03:43:09;-0.50;99.90
15364;DHT22;7781;49.690;6.472;2023-02-13T03:45:42;-0.50;99.90
15364;DHT22;7781;49.690;6.472;2023-02-13T03:56:04;-0.40;99.90
15364;DHT22;7781;49.690;6.472;2023-02-13T03:58:53;-0.50;99.90
15364;DHT22;7781;49.690;6.472;2023-02-13T04:01:39;-0.50;99.90
15364;DHT22;7781;49.690;6.472;2023-02-13T04:04:20;-0.50;99.90
15364;DHT22;7781;49.690;6.472;2023-02-13T04:06:54;-0.50;99.90
15364;DHT22;7781;49.690;6.472;2023-02-13T04:09:26;-0.50;99.90
15364;DHT22;7781;49.690;6.472;2023-02-13T04:12:02;-0.50;99.90
15364;DHT22;7781;49.690;6.472;2023-02-13T04:14:39;-0.50;99.90
15364;DHT22;7781;49.690;6.472;2023-02-13T04:17:13;-0.40;99.90
15364;DHT22;7781;49.690;6.472;2023-02-13T04:19:44;-0.40;99.90
15364;DHT22;7781;49.690;6.472;2023-02-13T04:22:13;-0.30;99.90
15364;DHT22;7781;49.690;6.472;2023-02-13T04:24:42;-0.20;99.90
15364;DHT22;7781;49.690;6.472;2023-02-13T04:27:13;-0.10;99.90
15364;DHT22;7781;49.690;6.472;2023-02-13T04:29:43;-0.10;99.90
15364;DHT22;7781;49.690;6.472;2023-02-13T04:32:13;-0.10;99.90
15364;DHT22;7781;49.690;6.472;2023-02-13T04:34:43;-0.20;99.90
15364;DHT22;7781;49.690;6.472;2023-02-13T04:37:11;-0.20;99.90
15364;DHT22;7781;49.690;6.472;2023-02-13T04:39:40;-0.20;99.90
15364;DHT22;7781;49.690;6.472;2023-02-13T04:42:09;-0.20;99.90
15364;DHT22;7781;49.690;6.472;2023-02-13T04:44:39;-0.20;99.90
15364;DHT22;7781;49.690;6.472;2023-02-13T04:47:07;-0.10;99.90
15364;DHT22;7781;49.690;6.472;2023-02-13T04:49:36;-0.10;99.90
15364;DHT22;7781;49.690;6.472;2023-02-13T04:52:04;0.00;99.90
15364;DHT22;7781;49.690;6.472;2023-02-13T04:54:33;0.00;99.90
15364;DHT22;7781;49.690;6.472;2023-02-13T04:57:01;-0.10;99.90
15364;DHT22;7781;49.690;6.472;2023-02-13T04:59:30;-0.10;99.90
15364;DHT22;7781;49.690;6.472;2023-02-13T05:02:00;-0.10;99.90
15364;DHT22;7781;49.690;6.472;2023-02-13T05:04:28;-0.10;99.90
15364;DHT22;7781;49.690;6.472;2023-02-13T05:06:57;-0.10;99.90
15364;DHT22;7781;49.690;6.472;2023-02-13T05:09:25;-0.10;99.90
15364;DHT22;7781;49.690;6.472;2023-02-13T05:11:54;-0.10;99.90
15364;DHT22;7781;49.690;6.472;2023-02-13T05:14:23;-0.10;99.90
15364;DHT22;7781;49.690;6.472;2023-02-13T05:16:52;-0.10;99.90
15364;DHT22;7781;49.690;6.472;2023-02-13T05:19:24;-0.10;99.90
15364;DHT22;7781;49.690;6.472;2023-02-13T05:21:53;-0.10;99.90
15364;DHT22;7781;49.690;6.472;2023-02-13T05:24:43;0.00;99.90
15364;DHT22;7781;49.690;6.472;2023-02-13T05:27:13;0.00;99.90
15364;DHT22;7781;49.690;6.472;2023-02-13T05:29:42;0.00;99.90
15364;DHT22;7781;49.690;6.472;2023-02-13T05:32:11;0.00;99.90
15364;DHT22;7781;49.690;6.472;2023-02-13T05:34:43;0.00;99.90
15364;DHT22;7781;49.690;6.472;2023-02-13T05:37:12;0.00;99.90
15364;DHT22;7781;49.690;6.472;2023-02-13T05:39:42;-0.10;99.90
15364;DHT22;7781;49.690;6.472;2023-02-13T05:42:12;-0.10;99.90
15364;DHT22;7781;49.690;6.472;2023-02-13T05:44:41;-0.10;99.90
15364;DHT22;7781;49.690;6.472;2023-02-13T05:47:10;-0.20;99.90
15364;DHT22;7781;49.690;6.472;2023-02-13T05:49:38;-0.20;99.90
15364;DHT22;7781;49.690;6.472;2023-02-13T05:52:08;-0.20;99.90
15364;DHT22;7781;49.690;6.472;2023-02-13T05:54:36;-0.30;99.90
15364;DHT22;7781;49.690;6.472;2023-02-13T05:57:05;-0.30;99.90
15364;DHT22;7781;49.690;6.472;2023-02-13T05:59:34;-0.20;99.90
15364;DHT22;7781;49.690;6.472;2023-02-13T06:02:03;-0.20;99.90
15364;DHT22;7781;49.690;6.472;2023-02-13T06:04:31;-0.30;99.90
15364;DHT22;7781;49.690;6.472;2023-02-13T06:07:01;-0.20;99.90
15364;DHT22;7781;49.690;6.472;2023-02-13T06:09:32;-0.20;99.90
15364;DHT22;7781;49.690;6.472;2023-02-13T06:12:01;-0.20;99.90
15364;DHT22;7781;49.690;6.472;2023-02-13T06:14:29;-0.30;99.90
15364;DHT22;7781;49.690;6.472;2023-02-13T06:16:59;-0.30;99.90
15364;DHT22;7781;49.690;6.472;2023-02-13T06:19:28;-0.30;99.90
15364;DHT22;7781;49.690;6.472;2023-02-13T06:21:58;-0.30;99.90
15364;DHT22;7781;49.690;6.472;2023-02-13T06:24:27;-0.40;99.90
15364;DHT22;7781;49.690;6.472;2023-02-13T06:26:57;-0.40;99.90
15364;DHT22;7781;49.690;6.472;2023-02-13T06:29:25;-0.40;99.90
15364;DHT22;7781;49.690;6.472;2023-02-13T06:31:55;-0.50;99.90
15364;DHT22;7781;49.690;6.472;2023-02-13T06:34:24;-0.50;99.90
15364;DHT22;7781;49.690;6.472;2023-02-13T06:36:52;-0.50;99.90
15364;DHT22;7781;49.690;6.472;2023-02-13T06:39:21;-0.40;99.90
15364;DHT22;7781;49.690;6.472;2023-02-13T06:41:50;-0.40;99.90
15364;DHT22;7781;49.690;6.472;2023-02-13T06:44:20;-0.40;99.90
15364;DHT22;7781;49.690;6.472;2023-02-13T06:46:49;-0.40;99.90
15364;DHT22;7781;49.690;6.472;2023-02-13T06:49:20;-0.40;99.90
15364;DHT22;7781;49.690;6.472;2023-02-13T06:51:49;-0.30;99.90
15364;DHT22;7781;49.690;6.472;2023-02-13T06:54:17;-0.30;99.90
15364;DHT22;7781;49.690;6.472;2023-02-13T06:56:46;-0.20;99.90
15364;DHT22;7781;49.690;6.472;2023-02-13T06:59:16;-0.10;99.90
15364;DHT22;7781;49.690;6.472;2023-02-13T07:01:46;0.00;99.90
15364;DHT22;7781;49.690;6.472;2023-02-13T07:04:14;0.10;99.90
15364;DHT22;7781;49.690;6.472;2023-02-13T07:06:44;0.10;99.90
15364;DHT22;7781;49.690;6.472;2023-02-13T07:09:13;0.10;99.90
15364;DHT22;7781;49.690;6.472;2023-02-13T07:11:42;0.20;99.90
15364;DHT22;7781;49.690;6.472;2023-02-13T07:14:11;0.10;99.90
15364;DHT22;7781;49.690;6.472;2023-02-13T07:16:40;0.10;99.90
15364;DHT22;7781;49.690;6.472;2023-02-13T07:19:10;0.10;99.90
15364;DHT22;7781;49.690;6.472;2023-02-13T07:21:38;0.00;99.90
15364;DHT22;7781;49.690;6.472;2023-02-13T07:24:07;-0.10;99.90
15364;DHT22;7781;49.690;6.472;2023-02-13T07:26:36;-0.10;99.90
15364;DHT22;7781;49.690;6.472;2023-02-13T07:29:04;0.00;99.90
15364;DHT22;7781;49.690;6.472;2023-02-13T07:31:39;0.10;99.90
15364;DHT22;7781;49.690;6.472;2023-02-13T07:34:09;0.10;99.90
15364;DHT22;7781;49.690;6.472;2023-02-13T07:36:38;0.30;99.90
15364;DHT22;7781;49.690;6.472;2023-02-13T07:39:08;0.30;99.90
15364;DHT22;7781;49.690;6.472;2023-02-13T07:41:36;0.30;99.90
15364;DHT22;7781;49.690;6.472;2023-02-13T07:44:07;0.30;99.90
15364;DHT22;7781;49.690;6.472;2023-02-13T07:46:37;0.40;99.90
15364;DHT22;7781;49.690;6.472;2023-02-13T07:49:12;0.40;99.90
15364;DHT22;7781;49.690;6.472;2023-02-13T07:51:40;0.40;99.90
15364;DHT22;7781;49.690;6.472;2023-02-13T07:54:09;0.40;99.90
15364;DHT22;7781;49.690;6.472;2023-02-13T07:56:37;0.40;99.90
15364;DHT22;7781;49.690;6.472;2023-02-13T07:59:06;0.30;99.90
15364;DHT22;7781;49.690;6.472;2023-02-13T08:01:35;0.20;99.90
15364;DHT22;7781;49.690;6.472;2023-02-13T08:04:03;-0.10;99.90
15364;DHT22;7781;49.690;6.472;2023-02-13T08:06:37;0.00;99.90
15364;DHT22;7781;49.690;6.472;2023-02-13T08:09:06;0.00;99.90
15364;DHT22;7781;49.690;6.472;2023-02-13T08:11:53;0.00;99.90
15364;DHT22;7781;49.690;6.472;2023-02-13T08:14:24;0.00;99.90
15364;DHT22;7781;49.690;6.472;2023-02-13T08:16:57;-0.10;99.90
15364;DHT22;7781;49.690;6.472;2023-02-13T08:19:25;-0.10;99.90
15364;DHT22;7781;49.690;6.472;2023-02-13T08:21:55;-0.10;99.90
15364;DHT22;7781;49.690;6.472;2023-02-13T08:24:24;0.00;99.90
15364;DHT22;7781;49.690;6.472;2023-02-13T08:26:53;0.20;99.90
15364;DHT22;7781;49.690;6.472;2023-02-13T08:29:23;0.30;99.90
15364;DHT22;7781;49.690;6.472;2023-02-13T08:31:51;0.30;99.90
15364;DHT22;7781;49.690;6.472;2023-02-13T08:34:20;0.40;99.90
15364;DHT22;7781;49.690;6.472;2023-02-13T08:36:48;0.50;99.90
15364;DHT22;7781;49.690;6.472;2023-02-13T08:39:19;0.50;99.90
15364;DHT22;7781;49.690;6.472;2023-02-13T08:41:47;0.60;99.90
15364;DHT22;7781;49.690;6.472;2023-02-13T08:44:16;0.60;99.90
15364;DHT22;7781;49.690;6.472;2023-02-13T08:46:44;0.70;99.90
15364;DHT22;7781;49.690;6.472;2023-02-13T08:49:14;0.70;99.90
15364;DHT22;7781;49.690;6.472;2023-02-13T08:51:44;0.80;99.90
15364;DHT22;7781;49.690;6.472;2023-02-13T08:54:15;0.90;99.90
15364;DHT22;7781;49.690;6.472;2023-02-13T08:56:46;1.00;99.90
15364;DHT22;7781;49.690;6.472;2023-02-13T08:59:15;1.00;99.90
15364;DHT22;7781;49.690;6.472;2023-02-13T09:01:45;1.00;99.90
15364;DHT22;7781;49.690;6.472;2023-02-13T09:04:15;1.10;99.90
15364;DHT22;7781;49.690;6.472;2023-02-13T09:06:44;1.10;99.90
15364;DHT22;7781;49.690;6.472;2023-02-13T09:09:13;1.20;99.90
15364;DHT22;7781;49.690;6.472;2023-02-13T09:11:45;1.30;99.90
15364;DHT22;7781;49.690;6.472;2023-02-13T09:14:13;1.40;99.90
15364;DHT22;7781;49.690;6.472;2023-02-13T09:16:42;1.50;99.90
15364;DHT22;7781;49.690;6.472;2023-02-13T09:19:12;1.50;99.90
15364;DHT22;7781;49.690;6.472;2023-02-13T09:21:40;1.50;99.90
15364;DHT22;7781;49.690;6.472;2023-02-13T09:24:09;1.60;99.90
15364;DHT22;7781;49.690;6.472;2023-02-13T09:26:40;1.70;99.90
15364;DHT22;7781;49.690;6.472;2023-02-13T09:29:10;1.60;99.90
15364;DHT22;7781;49.690;6.472;2023-02-13T09:31:38;1.70;99.90
15364;DHT22;7781;49.690;6.472;2023-02-13T09:34:07;1.70;99.90
15364;DHT22;7781;49.690;6.472;2023-02-13T09:36:35;1.80;99.90
15364;DHT22;7781;49.690;6.472;2023-02-13T09:39:04;1.90;99.90
15364;DHT22;7781;49.690;6.472;2023-02-13T09:41:35;1.80;99.90
15364;DHT22;7781;49.690;6.472;2023-02-13T09:44:09;1.80;99.90
15364;DHT22;7781;49.690;6.472;2023-02-13T09:47:04;2.00;99.90
15364;DHT22;7781;49.690;6.472;2023-02-13T09:49:37;2.10;99.90
15364;DHT22;7781;49.690;6.472;2023-02-13T09:52:08;2.10;99.90
15364;DHT22;7781;49.690;6.472;2023-02-13T09:54:37;2.20;99.90
15364;DHT22;7781;49.690;6.472;2023-02-13T09:57:16;2.30;99.90
15364;DHT22;7781;49.690;6.472;2023-02-13T09:59:52;2.40;99.90
15364;DHT22;7781;49.690;6.472;2023-02-13T10:02:36;2.50;99.90
15364;DHT22;7781;49.690;6.472;2023-02-13T10:05:22;2.50;99.90
15364;DHT22;7781;49.690;6.472;2023-02-13T10:08:00;2.50;99.90
15364;DHT22;7781;49.690;6.472;2023-02-13T10:10:36;2.60;99.90
15364;DHT22;7781;49.690;6.472;2023-02-13T10:13:27;2.70;99.90
15364;DHT22;7781;49.690;6.472;2023-02-13T10:16:03;2.90;99.90
15364;DHT22;7781;49.690;6.472;2023-02-13T10:18:46;3.00;99.90
15364;DHT22;7781;49.690;6.472;2023-02-13T10:21:21;3.10;99.90
15364;DHT22;7781;49.690;6.472;2023-02-13T10:23:56;3.20;99.90
15364;DHT22;7781;49.690;6.472;2023-02-13T10:26:30;3.40;99.90
15364;DHT22;7781;49.690;6.472;2023-02-13T10:29:16;3.60;99.90
15364;DHT22;7781;49.690;6.472;2023-02-13T10:32:10;3.60;99.90
15364;DHT22;7781;49.690;6.472;2023-02-13T10:34:45;3.70;99.90
15364;DHT22;7781;49.690;6.472;2023-02-13T10:37:17;3.70;99.90
15364;DHT22;7781;49.690;6.472;2023-02-13T10:39:50;3.80;99.90
15364;DHT22;7781;49.690;6.472;2023-02-13T10:42:22;4.10;99.90
15364;DHT22;7781;49.690;6.472;2023-02-13T10:45:07;4.30;99.90
15364;DHT22;7781;49.690;6.472;2023-02-13T10:47:51;4.40;99.90
15364;DHT22;7781;49.690;6.472;2023-02-13T10:50:31;4.60;99.90
15364;DHT22;7781;49.690;6.472;2023-02-13T10:53:13;4.80;99.90
15364;DHT22;7781;49.690;6.472;2023-02-13T10:56:13;4.90;99.90
15364;DHT22;7781;49.690;6.472;2023-02-13T10:59:32;5.00;99.90
15364;DHT22;7781;49.690;6.472;2023-02-13T11:02:20;5.30;99.90
15364;DHT22;7781;49.690;6.472;2023-02-13T11:04:57;5.50;99.90
15364;DHT22;7781;49.690;6.472;2023-02-13T11:07:29;5.70;99.90
15364;DHT22;7781;49.690;6.472;2023-02-13T11:10:03;5.90;99.90
15364;DHT22;7781;49.690;6.472;2023-02-13T11:12:33;6.00;99.90
15364;DHT22;7781;49.690;6.472;2023-02-13T11:15:05;6.20;99.90
15364;DHT22;7781;49.690;6.472;2023-02-13T11:17:39;6.30;99.90
15364;DHT22;7781;49.690;6.472;2023-02-13T11:20:26;6.40;99.90
15364;DHT22;7781;49.690;6.472;2023-02-13T11:23:17;6.50;99.90
15364;DHT22;7781;49.690;6.472;2023-02-13T11:28:37;6.80;99.90
15364;DHT22;7781;49.690;6.472;2023-02-13T11:31:13;6.90;99.90
15364;DHT22;7781;49.690;6.472;2023-02-13T11:33:42;7.00;99.90
15364;DHT22;7781;49.690;6.472;2023-02-13T11:36:14;7.00;99.90
15364;DHT22;7781;49.690;6.472;2023-02-13T11:38:57;7.10;99.90
15364;DHT22;7781;49.690;6.472;2023-02-13T11:41:27;7.20;99.90
15364;DHT22;7781;49.690;6.472;2023-02-13T11:43:59;7.30;99.90
15364;DHT22;7781;49.690;6.472;2023-02-13T11:46:41;7.40;99.90
15364;DHT22;7781;49.690;6.472;2023-02-13T11:49:17;7.50;99.90
15364;DHT22;7781;49.690;6.472;2023-02-13T11:51:48;7.60;99.90
15364;DHT22;7781;49.690;6.472;2023-02-13T11:54:28;7.70;99.90
15364;DHT22;7781;49.690;6.472;2023-02-13T11:57:18;7.70;99.90
15364;DHT22;7781;49.690;6.472;2023-02-13T11:59:53;7.80;99.90
15364;DHT22;7781;49.690;6.472;2023-02-13T12:02:26;7.90;99.90
15364;DHT22;7781;49.690;6.472;2023-02-13T12:05:15;7.90;99.90
15364;DHT22;7781;49.690;6.472;2023-02-13T12:07:46;8.00;99.90
15364;DHT22;7781;49.690;6.472;2023-02-13T12:10:24;8.10;99.90
15364;DHT22;7781;49.690;6.472;2023-02-13T12:12:56;8.10;99.90
15364;DHT22;7781;49.690;6.472;2023-02-13T12:15:30;8.10;99.90
15364;DHT22;7781;49.690;6.472;2023-02-13T12:18:05;8.30;99.90
15364;DHT22;7781;49.690;6.472;2023-02-13T12:20:43;8.40;99.90
15364;DHT22;7781;49.690;6.472;2023-02-13T12:23:27;8.40;99.90
15364;DHT22;7781;49.690;6.472;2023-02-13T12:26:25;8.50;99.90
15364;DHT22;7781;49.690;6.472;2023-02-13T12:29:42;8.60;99.90
15364;DHT22;7781;49.690;6.472;2023-02-13T12:32:40;8.70;99.90
15364;DHT22;7781;49.690;6.472;2023-02-13T12:35:29;8.90;99.90
15364;DHT22;7781;49.690;6.472;2023-02-13T12:38:06;9.10;99.90
15364;DHT22;7781;49.690;6.472;2023-02-13T12:40:54;9.30;79.80
15364;DHT22;7781;49.690;6.472;2023-02-13T12:47:01;9.80;55.80
15364;DHT22;7781;49.690;6.472;2023-02-13T12:52:59;10.40;25.30
15364;DHT22;7781;49.690;6.472;2023-02-13T12:59:01;11.20;15.90
15364;DHT22;7781;49.690;6.472;2023-02-13T13:02:31;11.50;1.00
15364;DHT22;7781;49.690;6.472;2023-02-13T13:05:18;11.90;1.00
15364;DHT22;7781;49.690;6.472;2023-02-13T13:08:08;12.30;1.00
15364;DHT22;7781;49.690;6.472;2023-02-13T13:10:58;12.70;99.90
15364;DHT22;7781;49.690;6.472;2023-02-13T13:13:46;13.10;99.90
15364;DHT22;7781;49.690;6.472;2023-02-13T13:16:25;13.50;1.00
15364;DHT22;7781;49.690;6.472;2023-02-13T13:19:25;13.80;31.30
15364;DHT22;7781;49.690;6.472;2023-02-13T13:22:02;14.10;89.60
15364;DHT22;7781;49.690;6.472;2023-02-13T13:24:52;14.40;57.10
15364;DHT22;7781;49.690;6.472;2023-02-13T13:27:34;14.60;92.70
15364;DHT22;7781;49.690;6.472;2023-02-13T13:30:20;14.90;99.90
15364;DHT22;7781;49.690;6.472;2023-02-13T13:33:10;15.10;1.00
15364;DHT22;7781;49.690;6.472;2023-02-13T13:35:56;15.40;99.90
15364;DHT22;7781;49.690;6.472;2023-02-13T13:38:56;15.60;99.90
15364;DHT22;7781;49.690;6.472;2023-02-13T13:41:37;15.70;1.00
15364;DHT22;7781;49.690;6.472;2023-02-13T13:44:41;15.90;99.90
15364;DHT22;7781;49.690;6.472;2023-02-13T13:47:56;15.90;44.00
15364;DHT22;7781;49.690;6.472;2023-02-13T13:51:35;15.90;1.00
15364;DHT22;7781;49.690;6.472;2023-02-13T13:54:33;15.70;1.00
15364;DHT22;7781;49.690;6.472;2023-02-13T13:57:10;15.60;99.90
15364;DHT22;7781;49.690;6.472;2023-02-13T14:00:23;15.50;99.90
15364;DHT22;7781;49.690;6.472;2023-02-13T14:03:22;15.30;1.00
15364;DHT22;7781;49.690;6.472;2023-02-13T14:06:03;15.10;60.80
15364;DHT22;7781;49.690;6.472;2023-02-13T14:09:08;15.10;1.00
15364;DHT22;7781;49.690;6.472;2023-02-13T14:12:35;15.00;1.00
15364;DHT22;7781;49.690;6.472;2023-02-13T14:15:49;14.80;99.90
15364;DHT22;7781;49.690;6.472;2023-02-13T14:18:26;14.80;41.90
15364;DHT22;7781;49.690;6.472;2023-02-13T14:21:03;14.80;68.70
15364;DHT22;7781;49.690;6.472;2023-02-13T14:23:46;14.60;99.90
15364;DHT22;7781;49.690;6.472;2023-02-13T14:26:49;14.60;99.90
15364;DHT22;7781;49.690;6.472;2023-02-13T14:29:33;14.50;1.00
15364;DHT22;7781;49.690;6.472;2023-02-13T14:32:20;14.40;1.00
15364;DHT22;7781;49.690;6.472;2023-02-13T14:34:55;14.40;74.90
15364;DHT22;7781;49.690;6.472;2023-02-13T14:37:33;14.40;1.00
15364;DHT22;7781;49.690;6.472;2023-02-13T14:40:26;14.40;99.90
15364;DHT22;7781;49.690;6.472;2023-02-13T14:43:41;14.40;1.00
15364;DHT22;7781;49.690;6.472;2023-02-13T14:46:26;14.30;1.00
15364;DHT22;7781;49.690;6.472;2023-02-13T14:49:13;14.30;1.00
15364;DHT22;7781;49.690;6.472;2023-02-13T14:52:16;14.30;1.00
15364;DHT22;7781;49.690;6.472;2023-02-13T14:55:06;14.30;1.00
15364;DHT22;7781;49.690;6.472;2023-02-13T14:57:43;14.20;1.00
15364;DHT22;7781;49.690;6.472;2023-02-13T15:00:24;14.10;1.00
15364;DHT22;7781;49.690;6.472;2023-02-13T15:03:00;14.10;1.00
15364;DHT22;7781;49.690;6.472;2023-02-13T15:05:35;14.10;1.00
15364;DHT22;7781;49.690;6.472;2023-02-13T15:08:13;14.10;1.00
15364;DHT22;7781;49.690;6.472;2023-02-13T15:10:53;14.20;99.90
15364;DHT22;7781;49.690;6.472;2023-02-13T15:13:39;14.20;1.00
15364;DHT22;7781;49.690;6.472;2023-02-13T15:16:19;14.30;1.00
15364;DHT22;7781;49.690;6.472;2023-02-13T15:18:53;14.30;1.00
15364;DHT22;7781;49.690;6.472;2023-02-13T15:21:30;14.30;1.00
15364;DHT22;7781;49.690;6.472;2023-02-13T15:24:04;14.20;57.70
15364;DHT22;7781;49.690;6.472;2023-02-13T15:26:58;14.10;99.90
15364;DHT22;7781;49.690;6.472;2023-02-13T15:29:30;13.90;1.00
15364;DHT22;7781;49.690;6.472;2023-02-13T15:32:26;13.90;1.00
15364;DHT22;7781;49.690;6.472;2023-02-13T15:34:59;13.80;1.00
15364;DHT22;7781;49.690;6.472;2023-02-13T15:37:32;13.80;1.00
15364;DHT22;7781;49.690;6.472;2023-02-13T15:40:21;13.70;99.90
15364;DHT22;7781;49.690;6.472;2023-02-13T15:42:55;13.70;1.00
15364;DHT22;7781;49.690;6.472;2023-02-13T15:45:28;13.60;99.90
15364;DHT22;7781;49.690;6.472;2023-02-13T15:48:02;13.40;1.00
15364;DHT22;7781;49.690;6.472;2023-02-13T15:50:43;13.30;99.90
15364;DHT22;7781;49.690;6.472;2023-02-13T15:53:18;13.20;99.90
15364;DHT22;7781;49.690;6.472;2023-02-13T15:55:57;13.10;1.00
15364;DHT22;7781;49.690;6.472;2023-02-13T15:58:30;13.00;86.10
15364;DHT22;7781;49.690;6.472;2023-02-13T16:01:03;12.80;1.00
15364;DHT22;7781;49.690;6.472;2023-02-13T16:03:39;12.60;71.80
15364;DHT22;7781;49.690;6.472;2023-02-13T16:06:13;12.30;99.90
15364;DHT22;7781;49.690;6.472;2023-02-13T16:08:52;11.50;1.00
15364;DHT22;7781;49.690;6.472;2023-02-13T16:11:27;11.00;1.00
15364;DHT22;7781;49.690;6.472;2023-02-13T16:14:02;10.50;1.00
15364;DHT22;7781;49.690;6.472;2023-02-13T16:16:40;10.00;1.00
15364;DHT22;7781;49.690;6.472;2023-02-13T16:19:39;9.60;1.00
15364;DHT22;7781;49.690;6.472;2023-02-13T16:22:24;9.10;1.00
15364;DHT22;7781;49.690;6.472;2023-02-13T16:24:57;8.80;1.00
15364;DHT22;7781;49.690;6.472;2023-02-13T16:27:33;8.50;6.40
15364;DHT22;7781;49.690;6.472;2023-02-13T16:30:21;8.20;18.20
15364;DHT22;7781;49.690;6.472;2023-02-13T16:33:11;7.90;44.40
15364;DHT22;7781;49.690;6.472;2023-02-13T16:35:52;7.60;78.40
15364;DHT22;7781;49.690;6.472;2023-02-13T16:38:33;7.20;99.90
15364;DHT22;7781;49.690;6.472;2023-02-13T16:41:27;7.00;99.90
15364;DHT22;7781;49.690;6.472;2023-02-13T16:43:58;6.80;99.90
15364;DHT22;7781;49.690;6.472;2023-02-13T16:46:33;6.50;99.90
15364;DHT22;7781;49.690;6.472;2023-02-13T16:49:24;6.30;99.90
15364;DHT22;7781;49.690;6.472;2023-02-13T16:52:08;6.10;99.90
15364;DHT22;7781;49.690;6.472;2023-02-13T16:54:50;6.40;99.90
15364;DHT22;7781;49.690;6.472;2023-02-13T16:57:26;6.60;91.10
15364;DHT22;7781;49.690;6.472;2023-02-13T17:00:03;6.30;86.50
15364;DHT22;7781;49.690;6.472;2023-02-13T17:02:36;5.80;99.90
15364;DHT22;7781;49.690;6.472;2023-02-13T17:05:20;5.60;99.90
15364;DHT22;7781;49.690;6.472;2023-02-13T17:07:52;5.50;99.90
15364;DHT22;7781;49.690;6.472;2023-02-13T17:10:31;5.40;99.90
15364;DHT22;7781;49.690;6.472;2023-02-13T17:13:10;5.20;99.90
15364;DHT22;7781;49.690;6.472;2023-02-13T17:15:46;5.00;99.90
15364;DHT22;7781;49.690;6.472;2023-02-13T17:18:16;4.90;99.90
15364;DHT22;7781;49.690;6.472;2023-02-13T17:20:51;4.80;99.90
15364;DHT22;7781;49.690;6.472;2023-02-13T17:23:27;4.70;99.90
15364;DHT22;7781;49.690;6.472;2023-02-13T17:25:57;4.60;99.90
15364;DHT22;7781;49.690;6.472;2023-02-13T17:28:28;4.40;99.90
15364;DHT22;7781;49.690;6.472;2023-02-13T17:30:59;4.20;99.90
15364;DHT22;7781;49.690;6.472;2023-02-13T17:33:32;4.00;99.90
15364;DHT22;7781;49.690;6.472;2023-02-13T17:36:04;3.90;99.90